createdAt,value
2022-09-26T00:01:33.382Z,97089.66
2022-09-26T00:04:06.592Z,97066.66
2022-09-26T00:06:34.178Z,97061.06
2022-09-26T00:09:01.683Z,97076.09
2022-09-26T00:11:31.916Z,97076.19
2022-09-26T00:14:06.173Z,97056.91
2022-09-26T00:16:34.041Z,97066.16
2022-09-26T00:19:02.016Z,97064.53
2022-09-26T00:21:30.589Z,97068.84
2022-09-26T00:24:00.610Z,97053.66
2022-09-26T00:26:30.681Z,97066.72
2022-09-26T00:28:59.073Z,97074.06
2022-09-26T00:31:32.321Z,97069.75
2022-09-26T00:33:59.960Z,97080.78
2022-09-26T00:36:37.656Z,97083.50
2022-09-26T00:39:11.386Z,97089.50
2022-09-26T00:44:55.350Z,97093.28
2022-09-26T00:47:40.876Z,97120.84
2022-09-26T00:50:14.725Z,97125.59
2022-09-26T00:52:49.655Z,97099.06
2022-09-26T00:55:21.834Z,97126.47
2022-09-26T00:58:00.855Z,97124.56
2022-09-26T01:00:28.594Z,97097.47
2022-09-26T01:02:57.027Z,97113.41
2022-09-26T01:05:24.831Z,97106.75
2022-09-26T01:07:54.215Z,97110.22
2022-09-26T01:10:22.208Z,97122.59
2022-09-26T01:12:49.698Z,97112.84
2022-09-26T01:15:18.356Z,97109.56
2022-09-26T01:17:49.743Z,97100.69
2022-09-26T01:20:29.503Z,97111.84
2022-09-26T01:23:06.441Z,97105.72
2022-09-26T01:25:52.129Z,97119.41
2022-09-26T01:28:58.893Z,97110.53
2022-09-26T01:32:10.848Z,97094.91
2022-09-26T01:34:59.382Z,97114.41
2022-09-26T01:38:08.794Z,97104.66
2022-09-26T01:41:04.832Z,97108.69
2022-09-26T01:43:54.375Z,97108.50
2022-09-26T01:46:34.537Z,97108.50
2022-09-26T01:49:28.027Z,97097.81
2022-09-26T01:52:08.982Z,97087.38
2022-09-26T01:54:48.927Z,97094.97
2022-09-26T01:57:28.961Z,97098.09
2022-09-26T02:00:04.496Z,97086.53
2022-09-26T02:02:47.932Z,97096.03
2022-09-26T02:05:47.748Z,97095.41
2022-09-26T02:08:26.878Z,97086.78
2022-09-26T02:11:07.171Z,97090.81
2022-09-26T02:13:52.225Z,97081.78
2022-09-26T02:16:40.058Z,97067.78
2022-09-26T02:19:29.518Z,97068.31
2022-09-26T02:22:01.783Z,97033.84
2022-09-26T02:24:29.575Z,97032.31
2022-09-26T02:26:57.469Z,97030.25
2022-09-26T02:29:24.916Z,97019.19
2022-09-26T02:32:06.224Z,97017.97
2022-09-26T02:34:33.929Z,97009.50
2022-09-26T02:37:02.371Z,97023.88
2022-09-26T02:39:34.499Z,97022.25
2022-09-26T02:42:31.680Z,97028.53
2022-09-26T02:45:29.802Z,97044.59
2022-09-26T02:48:25.732Z,97053.34
2022-09-26T02:50:53.100Z,97061.22
2022-09-26T02:53:32.936Z,97058.63
2022-09-26T02:56:14.545Z,97080.72
2022-09-26T02:58:54.996Z,97075.47
2022-09-26T03:01:53.113Z,97082.38
2022-09-26T03:04:42.075Z,97071.66
2022-09-26T03:07:15.401Z,97086.28
2022-09-26T03:09:44.366Z,97090.84
2022-09-26T03:12:14.087Z,97096.41
2022-09-26T03:14:43.632Z,97102.41
2022-09-26T03:17:11.601Z,97101.31
2022-09-26T03:19:47.034Z,97121.78
2022-09-26T03:22:16.603Z,97110.53
2022-09-26T03:24:46.041Z,97123.66
2022-09-26T03:27:16.754Z,97133.84
2022-09-26T03:29:46.311Z,97145.69
2022-09-26T03:32:19.837Z,97146.75
2022-09-26T03:34:47.557Z,97147.00
2022-09-26T03:37:16.363Z,97148.91
2022-09-26T03:39:45.297Z,97147.00
2022-09-26T03:42:24.881Z,97139.41
2022-09-26T03:44:54.852Z,97142.53
2022-09-26T03:47:57.655Z,97148.13
2022-09-26T03:50:25.972Z,97143.03
2022-09-26T03:52:53.584Z,97146.31
2022-09-26T03:55:21.299Z,97135.19
2022-09-26T03:57:48.787Z,97139.84
2022-09-26T04:00:25.860Z,97137.53
2022-09-26T04:02:53.965Z,97142.03
2022-09-26T04:05:33.989Z,97144.03
2022-09-26T04:08:05.989Z,97143.75
2022-09-26T04:10:43.926Z,97141.81
2022-09-26T04:13:16.829Z,97138.16
2022-09-26T04:16:01.405Z,97141.41
2022-09-26T04:18:30.554Z,97139.19
2022-09-26T04:21:10.091Z,97143.00
2022-09-26T04:23:41.049Z,97133.31
2022-09-26T04:26:20.139Z,97129.72
2022-09-26T04:28:52.492Z,97137.03
2022-09-26T04:31:21.869Z,97131.34
2022-09-26T04:33:57.507Z,97128.75
2022-09-26T04:36:25.080Z,97126.00
2022-09-26T04:38:52.667Z,97123.41
2022-09-26T04:41:22.301Z,97119.19
2022-09-26T04:43:50.561Z,97117.97
2022-09-26T04:46:24.571Z,97124.88
2022-09-26T04:48:57.696Z,97139.22
2022-09-26T04:51:27.339Z,97096.47
2022-09-26T04:53:55.574Z,97114.84
2022-09-26T04:56:27.752Z,97123.41
2022-09-26T04:58:57.179Z,97118.41
2022-09-26T05:01:27.734Z,97112.97
2022-09-26T05:04:04.406Z,97124.44
2022-09-26T05:06:34.301Z,97103.63
2022-09-26T05:09:04.628Z,97095.41
2022-09-26T05:11:58.117Z,97115.13
2022-09-26T05:14:25.792Z,97104.41
2022-09-26T05:16:53.413Z,97105.53
2022-09-26T05:19:21.808Z,97096.28
2022-09-26T05:22:08.460Z,97099.72
2022-09-26T05:24:54.411Z,97112.56
2022-09-26T05:27:22.164Z,97111.38
2022-09-26T05:29:49.665Z,97101.94
2022-09-26T05:32:20.956Z,97104.19
2022-09-26T05:34:51.292Z,97108.25
2022-09-26T05:37:21.493Z,97105.94
2022-09-26T05:40:09.263Z,97116.03
2022-09-26T05:42:42.256Z,97105.78
2022-09-26T05:45:10.433Z,97105.25
2022-09-26T05:47:38.071Z,97100.31
2022-09-26T05:50:10.467Z,97097.75
2022-09-26T05:52:39.843Z,97113.81
2022-09-26T05:55:12.235Z,97112.59
2022-09-26T05:58:01.863Z,97098.84
2022-09-26T06:00:51.801Z,97106.63
2022-09-26T06:03:20.257Z,97107.41
2022-09-26T06:06:13.331Z,97107.50
2022-09-26T06:08:42.782Z,97115.63
2022-09-26T06:11:31.258Z,97118.19
2022-09-26T06:14:03.090Z,97127.44
2022-09-26T06:16:33.128Z,97125.03
2022-09-26T06:19:02.835Z,97116.84
2022-09-26T06:21:30.499Z,97105.69
2022-09-26T06:24:04.851Z,97134.91
2022-09-26T06:26:32.655Z,97121.06
2022-09-26T06:29:02.777Z,97129.09
2022-09-26T06:31:34.869Z,97121.75
2022-09-26T06:34:13.233Z,97138.97
2022-09-26T06:37:13.209Z,97145.84
2022-09-26T06:39:40.784Z,97130.13
2022-09-26T06:42:09.292Z,97137.16
2022-09-26T06:44:50.401Z,97139.03
2022-09-26T06:47:23.715Z,97144.44
2022-09-26T06:50:01.855Z,97147.28
2022-09-26T06:52:36.758Z,97146.41
2022-09-26T06:55:07.070Z,97140.22
2022-09-26T06:57:41.541Z,97135.28
2022-09-26T07:00:11.623Z,97151.63
2022-09-26T07:03:16.250Z,97162.66
2022-09-26T07:05:50.087Z,97163.34
2022-09-26T07:08:17.798Z,97161.97
2022-09-26T07:10:45.331Z,97164.25
2022-09-26T07:13:19.658Z,97159.25
2022-09-26T07:15:47.858Z,97166.53
2022-09-26T07:18:41.300Z,97159.16
2022-09-26T07:21:38.433Z,97171.59
2022-09-26T07:24:14.379Z,97170.75
2022-09-26T07:26:42.871Z,97169.63
2022-09-26T07:29:10.865Z,97184.66
2022-09-26T07:31:38.899Z,97191.50
2022-09-26T07:34:08.048Z,97179.47
2022-09-26T07:36:39.167Z,97181.16
2022-09-26T07:39:09.481Z,97189.75
2022-09-26T07:41:38.407Z,97186.16
2022-09-26T07:47:12.867Z,97192.41
2022-09-26T07:50:00.083Z,97188.69
2022-09-26T07:52:49.111Z,97207.19
2022-09-26T07:55:28.278Z,97205.88
2022-09-26T07:57:59.551Z,97203.94
2022-09-26T08:00:47.158Z,97202.06
2022-09-26T08:03:27.677Z,97208.63
2022-09-26T08:06:00.350Z,97195.16
2022-09-26T08:08:30.748Z,97235.94
2022-09-26T08:11:04.287Z,97229.59
2022-09-26T08:14:10.345Z,97230.91
2022-09-26T08:17:14.116Z,97236.88
2022-09-26T08:19:42.547Z,97239.09
2022-09-26T08:22:10.581Z,97242.28
2022-09-26T08:24:45.431Z,97234.91
2022-09-26T08:27:33.310Z,97238.31
2022-09-26T08:30:01.186Z,97252.41
2022-09-26T08:32:30.757Z,97250.75
2022-09-26T08:34:58.445Z,97263.88
2022-09-26T08:37:34.692Z,97264.53
2022-09-26T08:41:10.518Z,97270.75
2022-09-26T08:43:54.307Z,97264.91
2022-09-26T08:46:48.154Z,97279.16
2022-09-26T08:49:39.191Z,97291.41
2022-09-26T08:52:21.369Z,97278.44
2022-09-26T08:54:51.615Z,97292.03
2022-09-26T08:57:24.679Z,97288.38
2022-09-26T08:59:54.727Z,97296.16
2022-09-26T09:02:42.188Z,97291.13
2022-09-26T09:05:31.708Z,97313.19
2022-09-26T09:08:03.699Z,97303.06
2022-09-26T09:10:52.840Z,97308.22
2022-09-26T09:13:35.455Z,97314.13
2022-09-26T09:16:51.834Z,97312.97
2022-09-26T09:19:53.408Z,97326.25
2022-09-26T09:23:06.746Z,97310.81
2022-09-26T09:25:55.312Z,97316.66
2022-09-26T09:28:37.718Z,97329.06
2022-09-26T09:31:16.963Z,97346.88
2022-09-26T09:34:04.346Z,97331.44
2022-09-26T09:36:56.307Z,97335.19
2022-09-26T09:39:51.734Z,97341.81
2022-09-26T09:42:29.504Z,97353.06
2022-09-26T09:45:06.672Z,97357.28
2022-09-26T09:47:39.583Z,97344.09
2022-09-26T09:50:26.335Z,97340.09
2022-09-26T09:53:11.582Z,97342.94
2022-09-26T09:55:58.396Z,97345.63
2022-09-26T09:58:39.485Z,97348.66
2022-09-26T10:01:17.690Z,97353.91
2022-09-26T10:04:07.259Z,97361.00
2022-09-26T10:06:45.916Z,97366.16
2022-09-26T10:09:38.916Z,97360.53
2022-09-26T10:12:41.135Z,97341.84
2022-09-26T10:15:58.069Z,97370.28
2022-09-26T10:19:07.026Z,97364.75
2022-09-26T10:21:42.785Z,97365.44
2022-09-26T10:24:45.617Z,97371.03
2022-09-26T10:27:24.252Z,97371.78
2022-09-26T10:29:59.855Z,97379.81
2022-09-26T10:32:29.560Z,97370.03
2022-09-26T10:35:25.999Z,97381.53
2022-09-26T10:38:06.294Z,97386.38
2022-09-26T10:40:46.104Z,97393.72
2022-09-26T10:43:33.664Z,97383.44
2022-09-26T10:46:23.304Z,97390.34
2022-09-26T10:49:14.151Z,97390.09
2022-09-26T10:52:30.289Z,97399.09
2022-09-26T10:55:00.542Z,97400.63
2022-09-26T10:57:40.213Z,97400.38
2022-09-26T11:00:08.797Z,97405.25
2022-09-26T11:02:38.407Z,97397.00
2022-09-26T11:05:25.334Z,97398.41
2022-09-26T11:08:16.438Z,97409.03
2022-09-26T11:11:16.605Z,97413.97
2022-09-26T11:13:56.427Z,97421.16
2022-09-26T11:16:24.648Z,97414.75
2022-09-26T11:19:10.432Z,97423.91
2022-09-26T11:22:08.238Z,97418.97
2022-09-26T11:25:06.486Z,97435.94
2022-09-26T11:28:08.197Z,97430.22
2022-09-26T11:31:06.749Z,97432.41
2022-09-26T11:33:45.998Z,97434.66
2022-09-26T11:37:03.801Z,97430.91
2022-09-26T11:39:41.035Z,97434.38
2022-09-26T11:42:29.739Z,97434.38
2022-09-26T11:45:00.775Z,97445.09
2022-09-26T11:48:25.705Z,97434.44
2022-09-26T11:51:33.470Z,97446.78
2022-09-26T11:54:20.630Z,97448.25
2022-09-26T11:57:22.306Z,97453.16
2022-09-26T12:00:03.079Z,97453.00
2022-09-26T12:03:01.319Z,97464.94
2022-09-26T12:05:50.676Z,97460.88
2022-09-26T12:08:52.002Z,97456.97
2022-09-26T12:11:38.273Z,97462.06
2022-09-26T12:14:29.828Z,97464.59
2022-09-26T12:17:11.947Z,97468.75
2022-09-26T12:20:01.443Z,97477.06
2022-09-26T12:22:36.393Z,97469.44
2022-09-26T12:25:07.663Z,97474.22
2022-09-26T12:27:49.979Z,97490.47
2022-09-26T12:30:26.580Z,97481.50
2022-09-26T12:33:32.008Z,97479.75
2022-09-26T12:36:24.312Z,97484.16
2022-09-26T12:39:13.178Z,97472.41
2022-09-26T12:42:13.271Z,97480.69
2022-09-26T12:45:17.443Z,97480.16
2022-09-26T12:47:52.638Z,97484.25
2022-09-26T12:50:25.190Z,97471.84
2022-09-26T12:52:55.527Z,97486.59
2022-09-26T12:55:38.630Z,97485.38
2022-09-26T12:58:22.173Z,97495.50
2022-09-26T13:01:02.572Z,97490.66
2022-09-26T13:03:45.829Z,97502.69
2022-09-26T13:06:38.654Z,97503.50
2022-09-26T13:09:23.912Z,97510.28
2022-09-26T13:12:00.588Z,97509.97
2022-09-26T13:14:43.140Z,97515.63
2022-09-26T13:17:15.801Z,97510.59
2022-09-26T13:20:01.784Z,97518.56
2022-09-26T13:22:38.219Z,97515.28
2022-09-26T13:25:13.007Z,97523.50
2022-09-26T13:28:29.888Z,97537.28
2022-09-26T13:31:03.378Z,97533.03
2022-09-26T13:33:40.135Z,97534.59
2022-09-26T13:36:10.264Z,97539.25
2022-09-26T13:38:59.807Z,97542.22
2022-09-26T13:41:55.297Z,97542.91
2022-09-26T13:44:47.889Z,97540.25
2022-09-26T13:47:37.196Z,97542.50
2022-09-26T13:50:14.683Z,97537.91
2022-09-26T13:52:52.723Z,97544.50
2022-09-26T13:55:22.409Z,97547.59
2022-09-26T13:58:04.385Z,97546.47
2022-09-26T14:00:31.837Z,97555.84
2022-09-26T14:03:19.684Z,97558.13
2022-09-26T14:05:52.354Z,97556.03
2022-09-26T14:08:44.481Z,97559.78
2022-09-26T14:11:19.983Z,97562.47
2022-09-26T14:13:48.988Z,97568.53
2022-09-26T14:16:29.131Z,97565.72
2022-09-26T14:19:24.809Z,97572.25
2022-09-26T14:22:05.661Z,97565.13
2022-09-26T14:24:37.531Z,97566.19
2022-09-26T14:27:13.877Z,97571.88
2022-09-26T14:29:47.328Z,97570.16
2022-09-26T14:32:23.585Z,97570.94
2022-09-26T14:34:57.378Z,97571.53
2022-09-26T14:37:24.777Z,97575.75
2022-09-26T14:40:12.642Z,97578.38
2022-09-26T14:42:43.036Z,97577.00
2022-09-26T14:45:19.432Z,97577.56
2022-09-26T14:47:49.769Z,97588.59
2022-09-26T14:50:49.815Z,97581.13
2022-09-26T14:53:34.355Z,97577.06
2022-09-26T14:56:06.687Z,97582.97
2022-09-26T14:58:48.737Z,97578.22
2022-09-26T15:01:31.165Z,97583.41
2022-09-26T15:04:03.377Z,97581.59
2022-09-26T15:06:36.451Z,97584.38
2022-09-26T15:09:13.255Z,97579.59
2022-09-26T15:11:54.850Z,97580.88
2022-09-26T15:14:49.033Z,97583.69
2022-09-26T15:17:27.999Z,97585.41
2022-09-26T15:19:59.211Z,97586.97
2022-09-26T15:22:31.245Z,97581.78
2022-09-26T15:25:23.465Z,97590.16
2022-09-26T15:27:55.242Z,97581.94
2022-09-26T15:30:38.035Z,97582.28
2022-09-26T15:33:06.316Z,97587.84
2022-09-26T15:35:34.440Z,97585.22
2022-09-26T15:38:04.527Z,97591.91
2022-09-26T15:40:32.524Z,97588.47
2022-09-26T15:43:22.995Z,97577.06
2022-09-26T15:46:03.581Z,97593.94
2022-09-26T15:48:35.035Z,97596.34
2022-09-26T15:51:12.948Z,97600.25
2022-09-26T15:53:45.758Z,97605.97
2022-09-26T15:56:25.361Z,97597.75
2022-09-26T15:59:03.620Z,97605.09
2022-09-26T16:01:32.275Z,97596.78
2022-09-26T16:04:16.244Z,97602.66
2022-09-26T16:07:03.549Z,97602.53
2022-09-26T16:09:41.044Z,97603.66
2022-09-26T16:12:17.631Z,97594.53
2022-09-26T16:14:51.147Z,97603.84
2022-09-26T16:17:27.971Z,97601.09
2022-09-26T16:20:02.733Z,97601.63
2022-09-26T16:22:45.841Z,97600.75
2022-09-26T16:25:19.490Z,97596.31
2022-09-26T16:27:49.709Z,97594.84
2022-09-26T16:30:42.024Z,97599.44
2022-09-26T16:33:09.475Z,97598.41
2022-09-26T16:35:43.775Z,97601.44
2022-09-26T16:38:34.623Z,97601.34
2022-09-26T16:42:01.351Z,97602.22
2022-09-26T16:44:28.863Z,97602.81
2022-09-26T16:47:02.129Z,97593.97
2022-09-26T16:49:31.392Z,97613.56
2022-09-26T16:52:34.795Z,97602.63
2022-09-26T16:55:06.362Z,97610.88
2022-09-26T16:57:49.380Z,97603.59
2022-09-26T17:00:39.068Z,97606.38
2022-09-26T17:03:31.073Z,97599.59
2022-09-26T17:06:00.252Z,97606.53
2022-09-26T17:08:29.066Z,97606.81
2022-09-26T17:11:01.516Z,97603.25
2022-09-26T17:13:33.372Z,97597.69
2022-09-26T17:16:03.689Z,97602.22
2022-09-26T17:18:33.545Z,97602.81
2022-09-26T17:21:01.805Z,97601.69
2022-09-26T17:23:40.920Z,97601.72
2022-09-26T17:26:20.073Z,97611.81
2022-09-26T17:28:48.282Z,97614.41
2022-09-26T17:31:21.600Z,97611.13
2022-09-26T17:33:52.758Z,97607.41
2022-09-26T17:36:26.450Z,97610.38
2022-09-26T17:38:55.000Z,97610.63
2022-09-26T17:41:23.510Z,97618.59
2022-09-26T17:43:58.845Z,97617.09
2022-09-26T17:46:26.606Z,97618.66
2022-09-26T17:48:54.934Z,97626.81
2022-09-26T17:51:24.246Z,97625.59
2022-09-26T17:53:52.891Z,97628.63
2022-09-26T17:56:21.115Z,97623.09
2022-09-26T17:58:51.589Z,97632.25
2022-09-26T18:01:24.836Z,97635.38
2022-09-26T18:03:58.803Z,97628.28
2022-09-26T18:06:31.761Z,97630.88
2022-09-26T18:09:05.595Z,97631.22
2022-09-26T18:11:34.745Z,97639.63
2022-09-26T18:14:04.894Z,97636.06
2022-09-26T18:16:32.392Z,97627.03
2022-09-26T18:19:06.793Z,97635.69
2022-09-26T18:21:35.701Z,97636.44
2022-09-26T18:24:07.154Z,97639.81
2022-09-26T18:26:42.335Z,97640.69
2022-09-26T18:29:13.781Z,97644.47
2022-09-26T18:31:44.794Z,97651.41
2022-09-26T18:34:16.452Z,97646.84
2022-09-26T18:36:44.133Z,97642.06
2022-09-26T18:39:11.724Z,97647.56
2022-09-26T18:41:40.082Z,97644.00
2022-09-26T18:44:14.775Z,97648.66
2022-09-26T18:46:44.878Z,97656.72
2022-09-26T18:49:13.915Z,97654.72
2022-09-26T18:51:42.479Z,97652.63
2022-09-26T18:54:13.825Z,97658.47
2022-09-26T18:57:00.215Z,97650.22
2022-09-26T18:59:31.280Z,97650.56
2022-09-26T19:02:01.625Z,97657.66
2022-09-26T19:04:30.908Z,97663.38
2022-09-26T19:07:01.336Z,97662.72
2022-09-26T19:09:33.536Z,97669.88
2022-09-26T19:12:02.320Z,97658.00
2022-09-26T19:14:31.673Z,97667.63
2022-09-26T19:16:59.625Z,97667.84
2022-09-26T19:19:28.891Z,97677.38
2022-09-26T19:22:02.330Z,97667.66
2022-09-26T19:24:44.054Z,97679.50
2022-09-26T19:27:33.723Z,97674.34
2022-09-26T19:30:15.845Z,97681.72
2022-09-26T19:32:47.081Z,97685.31
2022-09-26T19:35:30.527Z,97685.28
2022-09-26T19:38:01.282Z,97679.34
2022-09-26T19:40:29.215Z,97674.59
2022-09-26T19:42:57.496Z,97676.38
2022-09-26T19:45:26.594Z,97680.97
2022-09-26T19:47:56.118Z,97677.41
2022-09-26T19:50:26.008Z,97686.75
2022-09-26T19:52:55.720Z,97691.50
2022-09-26T19:55:31.698Z,97691.69
2022-09-26T19:58:14.000Z,97686.34
2022-09-26T20:00:44.857Z,97678.31
2022-09-26T20:03:21.479Z,97685.56
2022-09-26T20:05:50.290Z,97692.38
2022-09-26T20:08:22.161Z,97688.81
2022-09-26T20:10:50.519Z,97686.94
2022-09-26T20:13:18.970Z,97689.94
2022-09-26T20:15:47.231Z,97687.81
2022-09-26T20:18:21.578Z,97695.63
2022-09-26T20:20:54.219Z,97700.75
2022-09-26T20:23:25.342Z,97700.75
2022-09-26T20:25:54.666Z,97698.94
2022-09-26T20:28:23.057Z,97708.84
2022-09-26T20:30:55.653Z,97701.06
2022-09-26T20:33:24.511Z,97703.91
2022-09-26T20:36:02.913Z,97701.59
2022-09-26T20:38:37.483Z,97713.69
2022-09-26T20:41:15.436Z,97700.91
2022-09-26T20:43:48.057Z,97709.91
2022-09-26T20:46:15.983Z,97707.09
2022-09-26T20:48:47.445Z,97719.91
2022-09-26T20:51:20.885Z,97721.38
2022-09-26T20:53:48.323Z,97721.19
2022-09-26T20:56:21.498Z,97702.88
2022-09-26T20:58:48.985Z,97712.13
2022-09-26T21:01:19.587Z,97717.94
2022-09-26T21:03:52.595Z,97728.09
2022-09-26T21:06:22.735Z,97724.13
2022-09-26T21:08:50.250Z,97737.72
2022-09-26T21:11:19.827Z,97728.44
2022-09-26T21:13:48.195Z,97724.41
2022-09-26T21:16:18.439Z,97740.50
2022-09-26T21:18:49.920Z,97735.81
2022-09-26T21:21:24.473Z,97744.94
2022-09-26T21:24:01.498Z,97739.59
2022-09-26T21:26:31.527Z,97748.38
2022-09-26T21:28:58.989Z,97741.56
2022-09-26T21:31:32.343Z,97749.84
2022-09-26T21:34:01.159Z,97752.31
2022-09-26T21:36:35.810Z,97758.88
2022-09-26T21:39:03.873Z,97762.38
2022-09-26T21:41:31.435Z,97770.59
2022-09-26T21:44:06.668Z,97762.75
2022-09-26T21:46:34.393Z,97760.06
2022-09-26T21:49:01.993Z,97773.91
2022-09-26T21:51:30.360Z,97763.53
2022-09-26T21:54:07.478Z,97765.69
2022-09-26T21:56:48.994Z,97759.75
2022-09-26T21:59:20.001Z,97774.75
2022-09-26T22:01:47.704Z,97766.13
2022-09-26T22:04:15.265Z,97764.13
2022-09-26T22:06:43.025Z,97763.13
2022-09-26T22:09:10.572Z,97774.75
2022-09-26T22:11:38.431Z,97773.31
2022-09-26T22:14:06.371Z,97779.03
2022-09-26T22:16:34.016Z,97775.72
2022-09-26T22:19:01.972Z,97773.69
2022-09-26T22:21:29.588Z,97771.22
2022-09-26T22:23:57.240Z,97773.56
2022-09-26T22:26:24.801Z,97776.91
2022-09-26T22:28:52.338Z,97784.59
2022-09-26T22:31:20.142Z,97782.50
2022-09-26T22:33:47.746Z,97777.09
2022-09-26T22:36:16.819Z,97781.97
2022-09-26T22:38:45.144Z,97783.69
2022-09-26T22:41:12.582Z,97780.50
2022-09-26T22:43:40.092Z,97783.47
2022-09-26T22:46:09.991Z,97785.84
2022-09-26T22:48:42.695Z,97789.13
2022-09-26T22:51:10.591Z,97788.00
2022-09-26T22:53:39.504Z,97789.31
2022-09-26T22:56:09.528Z,97790.56
2022-09-26T22:58:43.315Z,97794.50
2022-09-26T23:01:23.278Z,97801.25
2022-09-26T23:03:55.026Z,97790.41
2022-09-26T23:06:23.843Z,97791.91
2022-09-26T23:08:51.838Z,97792.66
2022-09-26T23:11:20.390Z,97782.88
2022-09-26T23:13:50.223Z,97785.31
2022-09-26T23:16:47.867Z,97791.72
2022-09-26T23:19:18.206Z,97790.66
2022-09-26T23:21:45.654Z,97793.16
2022-09-26T23:24:13.251Z,97792.41
2022-09-26T23:26:40.783Z,97789.94
2022-09-26T23:29:09.533Z,97801.84
2022-09-26T23:31:37.043Z,97799.66
2022-09-26T23:34:04.853Z,97789.09
2022-09-26T23:36:32.430Z,97801.22
2022-09-26T23:39:00.221Z,97796.19
2022-09-26T23:41:27.739Z,97792.13
2022-09-26T23:43:55.243Z,97793.97
2022-09-26T23:46:22.914Z,97804.81
2022-09-26T23:48:50.455Z,97797.13
2022-09-26T23:51:18.064Z,97797.41
2022-09-26T23:53:45.585Z,97797.47
2022-09-26T23:56:14.458Z,97809.75
2022-09-26T23:58:42.379Z,97795.28
